Latest Weather Observations for Mount Boyce

IDN60801

Issued at 5:12 pm EST Saturday 22 June 2024 (issued every 10 minutes, with the page automatically refreshed every 10 minutes)

About weather observations | Map of weather stations | Latest weather observations for NSW | Other Formats
Station Details ID: 063292 Name: MOUNT BOYCE AWS Lat: -33.62 Lon: 150.27 Height: 1080.0 m
Data from the previous 72 hours. | See also: Recent months at Mount Boyce
Date/Time
EST
Temp
°C
App
Temp
°C
Dew
Point
°C
Rel
Hum
%
Delta-T
°C
Wind Press
QNH
hPa
Press
MSL
hPa
Rain since
9am
mm
Dir  Spd
km/h
Gust
km/h
Spd
kts
Gust
kts
22/05:00pm 5.5 2.1 3.8 89 0.8 SW 11 22 6 12 - - 0.0
22/04:30pm 5.6 1.8 3.9 89 0.8 SW 13 19 7 10 - - 0.0
22/04:00pm 5.5 2.1 4.0 90 0.7 SSW 11 20 6 11 - - 0.0
22/03:30pm 5.6 2.7 4.4 92 0.5 SSW 9 17 5 9 - - 0.0
22/03:00pm 6.0 2.2 3.8 86 1.0 SSW 13 24 7 13 - - 0.0
22/02:30pm 6.5 2.7 3.7 82 1.3 SSW 13 24 7 13 - - 0.0
22/02:00pm 7.3 3.5 3.9 79 1.6 SSW 13 24 7 13 - - 0.0
22/01:30pm 6.4 2.1 3.2 80 1.4 SSW 15 26 8 14 - - 0.0
22/01:00pm 6.9 1.9 3.5 79 1.5 SW 19 26 10 14 - - 0.0
22/12:30pm 6.3 2.3 3.1 80 1.4 SW 13 19 7 10 - - 0.0
22/12:00pm 6.3 1.2 3.1 80 1.4 SW 19 28 10 15 - - 0.0
22/11:30am 6.3 1.9 2.9 79 1.5 SW 15 22 8 12 - - 0.0
22/11:00am 5.8 1.3 2.4 79 1.5 SSW 15 24 8 13 - - 0.0
22/10:46am 5.2 0.3 2.2 81 1.3 SSW 17 28 9 15 - - 0.0
22/10:30am 5.2 1.1 2.0 80 1.4 SSW 13 24 7 13 - - 0.0
22/10:11am 5.5 0.6 2.2 79 1.4 SSW 17 26 9 14 - - 0.0
22/10:00am 5.7 0.9 2.5 80 1.4 SSW 17 28 9 15 - - 0.0
22/09:53am 5.1 0.6 2.1 81 1.3 SSW 15 26 8 14 - - 0.0
22/09:52am 5.1 0.6 1.9 80 1.4 SSW 15 26 8 14 - - 0.0
22/09:30am 4.6 -0.7 2.0 83 1.1 SSW 19 28 10 15 - - 0.0
22/09:00am 4.4 -0.5 2.3 86 0.9 SSW 17 30 9 16 - - 0.2
22/08:30am 3.7 -0.8 2.2 90 0.6 SSW 15 30 8 16 - - 0.2
22/08:00am 3.6 -1.3 2.3 91 0.6 SW 17 28 9 15 - - 0.2
22/07:30am 3.5 -1.0 2.3 92 0.5 SSW 15 26 8 14 - - 0.2
22/07:00am 3.5 -1.0 2.3 92 0.5 SW 15 26 8 14 - - 0.2
22/06:30am 3.6 -1.6 2.4 92 0.5 SSW 19 35 10 19 - - 0.2
22/06:00am 3.4 -1.0 2.5 94 0.4 SW 15 32 8 17 - - 0.2
22/05:30am 3.3 -0.7 2.9 97 0.2 SW 13 20 7 11 - - 0.2
22/05:00am 3.1 -0.5 3.0 99 0.0 SW 11 17 6 9 - - 0.2
22/04:30am 3.0 -0.6 2.9 99 0.0 WSW 11 17 6 9 - - 0.2
22/04:07am 2.7 -0.6 2.6 99 0.0 SW 9 15 5 8 - - 0.2
22/04:00am 2.6 -1.1 2.3 98 0.1 WSW 11 17 6 9 - - 0.2
22/03:32am 2.7 -0.7 2.1 96 0.3 WSW 9 15 5 8 - - 0.0
22/03:30am 2.8 -0.9 2.2 96 0.3 WSW 11 17 6 9 - - 0.0
22/03:00am 2.5 -0.9 1.8 95 0.3 WSW 9 13 5 7 - - 0.0
22/02:30am 2.3 -1.5 1.6 95 0.3 W 11 15 6 8 - - 0.0
22/02:03am 2.1 -1.7 1.7 97 0.2 WSW 11 13 6 7 - - 0.0
22/02:00am 2.0 -1.8 1.6 97 0.2 WSW 11 15 6 8 - - 0.0
22/01:30am 1.4 -3.7 1.0 97 0.2 WSW 17 19 9 10 - - 0.0
22/01:00am 1.4 -3.3 0.7 95 0.3 W 15 17 8 9 - - 0.0
22/12:30am 1.5 -2.8 0.8 95 0.3 WSW 13 15 7 8 - - 0.0
22/12:00am 1.3 -3.1 0.6 95 0.3 WSW 13 17 7 9 - - 0.0
 
Date/Time
EST
Temp
°C
App
Temp
°C
Dew
Point
°C
Rel
Hum
%
Delta-T
°C
Wind Press
QNH
hPa
Press
MSL
hPa
Rain since
9am
mm
Dir  Spd
km/h
Gust
km/h
Spd
kts
Gust
kts
21/11:30pm 1.5 -2.8 0.8 95 0.3 WSW 13 15 7 8 - - 0.0
21/11:00pm 1.4 -3.0 0.5 94 0.4 WSW 13 15 7 8 - - 0.0
21/10:30pm 1.4 -2.6 0.5 94 0.4 WSW 11 15 6 8 - - 0.0
21/10:00pm 1.7 -2.7 0.5 92 0.5 W 13 15 7 8 - - 0.0
21/09:30pm 1.7 -2.3 0.5 92 0.5 WSW 11 15 6 8 - - 0.0
21/09:00pm 1.9 -2.1 0.7 92 0.5 WSW 11 13 6 7 - - 0.0
21/08:30pm 2.0 -2.3 0.7 91 0.5 WSW 13 17 7 9 - - 0.0
21/08:00pm 2.2 -2.5 0.6 89 0.6 WSW 15 19 8 10 - - 0.0
21/07:30pm 2.9 -1.8 1.0 87 0.8 W 15 19 8 10 - - 0.0
21/07:00pm 3.1 -0.4 1.2 87 0.8 WSW 9 15 5 8 - - 0.0
21/06:30pm 3.3 -0.2 1.2 86 0.9 WSW 9 11 5 6 - - 0.0
21/06:00pm 3.7 -1.3 1.4 85 1.0 W 17 24 9 13 - - 0.0
21/05:30pm 4.0 -1.0 1.4 83 1.1 W 17 28 9 15 - - 0.0
21/05:00pm 4.8 -0.1 1.7 80 1.3 WSW 17 28 9 15 - - 0.0
21/04:30pm 5.5 0.1 1.2 74 1.8 WSW 19 28 10 15 - - 0.0
21/04:00pm 6.3 2.0 1.0 69 2.3 W 13 19 7 10 - - 0.0
21/03:30pm 6.7 2.5 1.8 71 2.1 W 13 19 7 10 - - 0.0
21/03:00pm 5.8 1.4 2.8 81 1.3 WSW 15 26 8 14 - - 0.0
21/02:30pm 8.5 3.2 1.9 63 2.9 WSW 19 28 10 15 - - 0.0
21/02:00pm 7.8 2.8 1.2 63 2.9 WSW 17 28 9 15 - - 0.0
21/01:30pm 7.9 2.3 1.3 63 2.9 W 20 30 11 16 - - 0.0
21/01:00pm 9.1 4.0 1.0 57 3.5 W 17 28 9 15 - - 0.0
21/12:30pm 7.3 2.3 1.4 66 2.6 W 17 24 9 13 - - 0.0
21/12:00pm 7.6 2.9 3.3 74 2.0 WSW 17 24 9 13 - - 0.0
21/11:30am 6.8 1.9 2.3 73 2.0 W 17 24 9 13 - - 0.0
21/11:00am 6.2 1.3 2.3 76 1.7 WSW 17 28 9 15 - - 0.0
21/10:45am 6.6 1.9 2.9 77 1.7 WSW 17 24 9 13 - - 0.0
21/10:30am 6.2 1.0 2.7 78 1.5 W 19 24 10 13 - - 0.0
21/10:17am 6.5 1.4 3.1 79 1.5 WSW 19 26 10 14 - - 0.0
21/10:00am 6.0 1.0 3.5 84 1.1 W 19 24 10 13 - - 0.0
21/09:30am 5.4 0.2 2.2 80 1.4 W 19 26 10 14 - - 0.0
21/09:00am 4.7 -0.7 2.7 87 0.9 W 20 26 11 14 - - 0.0
21/08:30am 4.5 -0.6 3.0 90 0.7 W 19 28 10 15 - - 0.0
21/08:08am 4.1 -0.3 2.9 92 0.5 W 15 20 8 11 - - 0.0
21/08:00am 4.0 -0.3 3.0 93 0.4 W 15 20 8 11 - - 0.0
21/07:43am 4.0 -0.7 3.0 93 0.4 W 17 24 9 13 - - 0.0
21/07:30am 4.0 -1.1 3.1 94 0.4 WSW 19 28 10 15 - - 0.0
21/07:00am 4.0 -0.7 3.1 94 0.4 W 17 24 9 13 - - 0.0
21/06:30am 4.3 0.0 3.4 94 0.4 W 15 20 8 11 - - 0.0
21/06:29am 4.4 0.1 3.5 94 0.4 W 15 20 8 11 - - 0.0
21/06:00am 4.6 -0.4 3.7 94 0.4 W 19 28 10 15 - - 0.0
21/05:53am 4.6 -0.4 3.7 94 0.4 W 19 28 10 15 - - 0.0
21/05:30am 4.6 -0.4 3.7 94 0.4 W 19 24 10 13 - - 0.0
21/05:26am 4.6 -0.4 3.7 94 0.4 W 19 24 10 13 - - 0.0
21/05:00am 4.6 0.0 3.9 95 0.3 W 17 24 9 13 - - 0.0
21/04:48am 4.4 -0.6 3.7 95 0.3 W 19 24 10 13 - - 0.0
21/04:30am 4.2 -0.5 3.3 94 0.4 W 17 22 9 12 - - 0.0
21/04:00am 4.7 0.0 3.4 91 0.6 W 17 22 9 12 - - 0.0
21/03:30am 4.8 0.2 3.6 92 0.5 W 17 24 9 13 - - 0.0
21/03:00am 4.5 -0.2 3.2 91 0.6 W 17 20 9 11 - - 0.0
21/02:56am 4.5 -0.2 3.2 91 0.6 W 17 22 9 12 - - 0.0
21/02:37am 4.7 0.0 3.4 91 0.6 W 17 24 9 13 - - 0.0
21/02:30am 4.6 -0.1 3.3 91 0.6 W 17 22 9 12 - - 0.0
21/02:00am 4.6 0.3 3.1 90 0.7 W 15 19 8 10 - - 0.0
21/01:30am 4.4 0.0 2.8 89 0.7 W 15 20 8 11 - - 0.0
21/01:00am 4.5 -0.3 2.7 88 0.8 W 17 22 9 12 - - 0.0
21/12:30am 4.3 0.2 2.2 86 0.9 W 13 20 7 11 - - 0.0
21/12:00am 3.9 0.9 1.9 87 0.8 NW 7 13 4 7 - - 0.0
 
Date/Time
EST
Temp
°C
App
Temp
°C
Dew
Point
°C
Rel
Hum
%
Delta-T
°C
Wind Press
QNH
hPa
Press
MSL
hPa
Rain since
9am
mm
Dir  Spd
km/h
Gust
km/h
Spd
kts
Gust
kts
20/11:30pm 3.9 0.8 1.3 83 1.1 WNW 7 13 4 7 - - 0.0
20/11:00pm 4.3 2.5 1.2 80 1.3 CALM 0 0 0 0 - - 0.0
20/10:30pm 5.1 1.7 1.6 78 1.5 WNW 9 17 5 9 - - 0.0
20/10:00pm 4.1 0.6 1.1 81 1.3 WNW 9 13 5 7 - - 0.0
20/09:30pm 4.5 0.9 0.8 77 1.5 WNW 9 13 5 7 - - 0.0
20/09:00pm 5.6 1.7 1.3 74 1.8 WNW 11 15 6 8 - - 0.0
20/08:30pm 5.2 1.3 1.3 76 1.7 WNW 11 17 6 9 - - 0.0
20/08:00pm 4.5 0.9 0.8 77 1.5 WNW 9 15 5 8 - - 0.0
20/07:30pm 4.3 1.1 0.5 76 1.6 WNW 7 13 4 7 - - 0.0
20/07:00pm 4.4 0.7 -0.2 72 1.9 WNW 9 13 5 7 - - 0.0
20/06:30pm 4.9 1.6 0.1 71 2.0 WNW 7 13 4 7 - - 0.0
20/06:00pm 5.7 2.0 0.1 67 2.3 W 9 11 5 6 - - 0.0
20/05:30pm 5.7 2.9 -0.4 65 2.5 WNW 4 7 2 4 - - 0.0
20/05:00pm 6.2 2.4 -1.0 60 2.9 WNW 9 15 5 8 - - 0.0
20/04:30pm 7.3 2.6 -1.6 53 3.6 W 13 20 7 11 - - 0.0
20/04:00pm 7.6 2.8 -2.4 49 4.0 W 13 15 7 8 - - 0.0
20/03:30pm 7.7 2.9 -2.9 47 4.2 W 13 20 7 11 - - 0.0
20/03:00pm 8.1 2.9 -2.8 46 4.3 W 15 20 8 11 - - 0.0
20/02:30pm 8.2 3.9 -1.6 50 4.0 W 11 15 6 8 - - 0.0
20/02:00pm 8.3 3.5 -2.3 47 4.2 W 13 19 7 10 - - 0.0
20/01:30pm 8.4 3.2 -2.5 46 4.4 WSW 15 22 8 12 - - 0.0
20/01:00pm 8.0 2.9 -2.0 49 4.0 W 15 22 8 12 - - 0.0
20/12:30pm 7.5 1.8 -0.9 55 3.5 W 19 24 10 13 - - 0.0
20/12:00pm 6.2 0.8 -1.0 60 2.9 WSW 17 22 9 12 - - 0.0
20/11:30am 6.1 0.7 -1.1 60 2.9 W 17 22 9 12 - - 0.0
20/11:00am 6.0 0.5 -1.9 57 3.1 W 17 24 9 13 - - 0.0
20/10:30am 5.4 0.2 -2.4 57 3.0 W 15 19 8 10 - - 0.0
20/10:00am 5.0 -0.2 -2.8 57 3.0 WSW 15 19 8 10 - - 0.0
20/09:30am 5.0 0.2 -2.8 57 3.0 W 13 20 7 11 - - 0.0
20/09:00am 4.2 -0.6 -2.6 61 2.6 W 13 17 7 9 - - 0.2
20/08:30am 3.8 -1.8 -3.0 61 2.5 W 17 20 9 11 - - 0.2
20/08:00am 3.4 -2.3 -3.4 61 2.5 W 17 20 9 11 - - 0.2
20/07:30am 2.8 -2.9 -3.5 63 2.3 W 17 19 9 10 - - 0.2
20/07:00am 2.9 -2.4 -3.4 63 2.3 WNW 15 19 8 10 - - 0.2
20/06:30am 2.5 -2.4 -3.2 66 2.1 WNW 13 17 7 9 - - 0.2
20/06:00am 2.2 -2.2 -2.7 70 1.8 WNW 11 15 6 8 - - 0.2
20/05:30am 1.9 -2.5 -2.2 74 1.5 W 11 17 6 9 - - 0.2
20/05:00am 2.1 -3.0 -2.2 73 1.6 W 15 22 8 12 - - 0.2
20/04:30am 1.9 -3.5 -1.2 80 1.2 W 17 24 9 13 - - 0.2
20/04:00am 2.1 -3.0 -1.7 76 1.4 W 15 20 8 11 - - 0.2
20/03:30am 2.3 -3.7 -1.3 77 1.4 W 20 30 11 16 - - 0.2
20/03:00am 2.1 -4.2 -1.3 78 1.3 W 22 30 12 16 - - 0.2
20/02:30am 1.6 -3.8 -1.1 82 1.0 W 17 24 9 13 - - 0.2
20/02:00am 1.4 -3.5 -0.8 85 0.8 W 15 20 8 11 - - 0.2
20/01:30am 1.8 -3.9 -0.6 84 0.9 W 19 28 10 15 - - 0.2
20/01:00am 1.8 -3.9 -0.9 82 1.0 W 19 24 10 13 - - 0.2
20/12:30am 2.1 -3.3 -1.3 78 1.3 W 17 24 9 13 - - 0.2
20/12:00am 2.4 -3.4 -1.6 75 1.5 W 19 28 10 15 - - 0.2
 
Date/Time
EST
Temp
°C
App
Temp
°C
Dew
Point
°C
Rel
Hum
%
Delta-T
°C
Wind Press
QNH
hPa
Press
MSL
hPa
Rain since
9am
mm
Dir  Spd
km/h
Gust
km/h
Spd
kts
Gust
kts
19/11:30pm 2.2 -3.3 -1.8 75 1.5 W 17 22 9 12 - - 0.2
19/11:00pm 2.1 -2.7 -2.4 72 1.7 W 13 19 7 10 - - 0.2
19/10:30pm 2.7 -3.2 -2.2 70 1.8 W 19 22 10 12 - - 0.2
19/10:00pm 2.5 -3.0 -2.0 72 1.7 W 17 22 9 12 - - 0.2
19/09:30pm 3.0 -2.9 -2.1 69 1.9 WSW 19 26 10 14 - - 0.2
19/09:00pm 2.9 -3.2 -2.0 70 1.9 WSW 20 32 11 17 - - 0.2
19/08:30pm 2.7 -3.8 -2.4 69 1.9 WSW 22 28 12 15 - - 0.2
19/08:00pm 2.9 -3.2 -2.2 69 1.9 W 20 28 11 15 - - 0.2
19/07:30pm 3.3 -2.8 -2.0 68 2.0 W 20 26 11 14 - - 0.2
19/07:00pm 3.4 -2.1 -2.1 67 2.1 W 17 24 9 13 - - 0.2
19/06:30pm 3.8 -0.6 -2.2 65 2.3 W 11 15 6 8 - - 0.2
19/06:00pm 3.7 -0.6 -1.8 67 2.1 W 11 15 6 8 - - 0.2
19/05:30pm 4.5 -0.5 -1.5 65 2.4 W 15 20 8 11 - - 0.2

Other formats

Comma delimited format used in spreadsheet applications
http://www.bom.gov.au/fwo/IDN60801/IDN60801.94743.axf

JavaScript Object Notation format (JSON) in row-major order
http://www.bom.gov.au/fwo/IDN60801/IDN60801.94743.json

Data quality

Most of these data are generated automatically and are frequently updated. Quality checks on data are not normally performed. It is possible for incorrect values to appear. Refer to information at About Latest Weather Observations and please check the disclaimer before using these data.